Time;durP1;ratioP1;P1;durP2;ratioP2;P2;SDS_P1;SDS_P2;PMS_P1;PMS_P2;Temp;Humidity;BMP_temperature;BMP_pressure;BME280_temperature;BME280_humidity;BME280_pressure;Samples;Min_cycle;Max_cycle;Signal;HPM_P1;HPM_P2
2022/11/15 00:02:36;;;;;;;23.27;10.70;;;;;;;;;;5065231;28;20209;-82
2022/11/15 00:05:20;;;;;;;28.37;14.27;;;;;;;;;;5066880;28;20184;-82
2022/11/15 00:08:05;;;;;;;28.63;14.93;;;;;;;;;;5070712;28;20206;-82
2022/11/15 00:11:00;;;;;;;18.97;10.37;;;;;;;;;;5066782;28;20929;-81
2022/11/15 00:13:45;;;;;;;22.23;11.10;;;;;;;;;;5069542;28;20710;-82
2022/11/15 00:16:30;;;;;;;11.10;6.50;;;;;;;;;;5070169;28;20176;-81
2022/11/15 00:19:14;;;;;;;36.77;18.10;;;;;;;;;;5070883;28;20177;-84
2022/11/15 00:21:59;;;;;;;21.20;10.73;;;;;;;;;;5047596;28;20210;-81
2022/11/15 00:24:44;;;;;;;16.80;9.40;;;;;;;;;;5083191;28;20220;-81
2022/11/15 00:27:29;;;;;;;32.43;15.83;;;;;;;;;;5064861;28;20280;-81
2022/11/15 00:30:13;;;;;;;33.60;15.37;;;;;;;;;;5064690;28;20268;-82
2022/11/15 00:33:02;;;;;;;14.03;7.70;;;;;;;;;;5054943;28;20210;-82
2022/11/15 00:35:46;;;;;;;18.23;9.07;;;;;;;;;;5065901;28;20185;-81
2022/11/15 00:38:34;;;;;;;36.60;16.40;;;;;;;;;;5067816;28;20283;-82
2022/11/15 00:41:20;;;;;;;16.03;8.80;;;;;;;;;;5061807;28;20247;-81
2022/11/15 00:44:04;;;;;;;11.90;5.70;;;;;;;;;;5069683;28;20264;-81
2022/11/15 00:46:49;;;;;;;5.67;4.10;;;;;;;;;;5068088;28;20188;-84
2022/11/15 00:49:34;;;;;;;7.53;4.33;;;;;;;;;;5067042;28;20573;-81
2022/11/15 00:52:19;;;;;;;8.57;4.93;;;;;;;;;;5060215;28;20255;-81
2022/11/15 00:55:04;;;;;;;13.80;7.73;;;;;;;;;;5079548;28;20220;-83
2022/11/15 00:57:48;;;;;;;23.40;11.60;;;;;;;;;;5064033;28;20176;-81
2022/11/15 01:00:33;;;;;;;16.20;8.77;;;;;;;;;;5065664;28;20177;-81
2022/11/15 01:03:18;;;;;;;16.70;8.87;;;;;;;;;;5068662;28;20204;-81
2022/11/15 01:06:03;;;;;;;9.03;5.70;;;;;;;;;;5069669;28;20202;-81
2022/11/15 01:08:48;;;;;;;11.27;6.10;;;;;;;;;;5062749;28;20170;-83
2022/11/15 01:11:33;;;;;;;12.80;7.10;;;;;;;;;;5066762;28;20207;-82
2022/11/15 01:14:18;;;;;;;11.37;7.03;;;;;;;;;;5067209;28;20177;-81
2022/11/15 01:17:03;;;;;;;9.20;5.60;;;;;;;;;;5055532;28;20524;-81
2022/11/15 01:19:48;;;;;;;6.97;4.27;;;;;;;;;;5064105;28;20287;-81
2022/11/15 01:22:32;;;;;;;8.87;4.97;;;;;;;;;;5067882;28;20570;-82
2022/11/15 01:25:17;;;;;;;9.50;5.70;;;;;;;;;;5065971;28;20180;-82
2022/11/15 01:28:02;;;;;;;9.00;4.90;;;;;;;;;;5066515;28;20185;-81
2022/11/15 01:30:46;;;;;;;9.63;5.33;;;;;;;;;;5063703;28;20205;-82
2022/11/15 01:33:31;;;;;;;6.73;4.90;;;;;;;;;;5065185;28;20201;-82
2022/11/15 01:36:18;;;;;;;6.53;4.43;;;;;;;;;;5075013;28;20520;-81
2022/11/15 01:39:02;;;;;;;7.43;4.20;;;;;;;;;;5063763;28;20194;-81
2022/11/15 01:41:48;;;;;;;8.23;4.90;;;;;;;;;;5066838;28;20197;-81
2022/11/15 01:44:41;;;;;;;7.97;5.10;;;;;;;;;;5064987;28;20645;-82
2022/11/15 01:47:28;;;;;;;8.87;4.67;;;;;;;;;;5072275;28;20226;-82
2022/11/15 01:50:16;;;;;;;13.40;6.43;;;;;;;;;;5072614;28;20249;-83
2022/11/15 01:53:01;;;;;;;16.07;7.00;;;;;;;;;;5062387;28;20205;-82
2022/11/15 01:55:45;;;;;;;9.77;5.20;;;;;;;;;;5067298;28;20191;-81
2022/11/15 01:58:30;;;;;;;7.93;4.40;;;;;;;;;;5065718;28;20193;-81
2022/11/15 02:01:15;;;;;;;14.40;7.47;;;;;;;;;;5064312;28;20246;-83
2022/11/15 02:04:02;;;;;;;7.50;5.10;;;;;;;;;;5070245;28;20294;-83
2022/11/15 02:06:47;;;;;;;6.00;3.97;;;;;;;;;;5065883;28;20177;-81
2022/11/15 02:09:32;;;;;;;6.23;4.70;;;;;;;;;;5053684;28;20208;-81
2022/11/15 02:12:18;;;;;;;6.00;3.67;;;;;;;;;;5051734;28;20245;-81
2022/11/15 02:15:04;;;;;;;3.77;3.40;;;;;;;;;;5067228;28;20234;-81
2022/11/15 02:17:56;;;;;;;4.80;3.50;;;;;;;;;;5050877;28;20176;-82
2022/11/15 02:20:43;;;;;;;5.03;3.30;;;;;;;;;;5065897;28;20725;-81
2022/11/15 02:23:37;;;;;;;4.67;2.80;;;;;;;;;;5066817;28;20611;-81
2022/11/15 02:26:43;;;;;;;3.93;3.10;;;;;;;;;;5064036;28;20688;-82
2022/11/15 02:29:40;;;;;;;5.90;3.23;;;;;;;;;;5054158;28;20215;-82
2022/11/15 02:32:34;;;;;;;4.10;3.30;;;;;;;;;;5064247;28;20212;-81
2022/11/15 02:35:30;;;;;;;4.03;3.30;;;;;;;;;;5080230;28;20311;-82
2022/11/15 02:38:26;;;;;;;3.83;3.00;;;;;;;;;;5065393;28;20255;-81
2022/11/15 02:41:16;;;;;;;3.53;3.17;;;;;;;;;;5065144;28;20189;-83
2022/11/15 02:44:04;;;;;;;4.03;3.10;;;;;;;;;;5064636;28;20190;-81
2022/11/15 02:49:57;;;;;;;4.40;2.97;;;;;;;;;;5066283;28;20980;-81
2022/11/15 02:52:45;;;;;;;3.90;2.80;;;;;;;;;;5064190;28;20301;-82
2022/11/15 02:55:30;;;;;;;3.27;2.83;;;;;;;;;;5073676;28;20188;-82
2022/11/15 02:58:24;;;;;;;4.40;3.00;;;;;;;;;;5067809;28;20227;-81
2022/11/15 03:01:28;;;;;;;3.20;2.60;;;;;;;;;;5068348;28;20619;-81
2022/11/15 03:04:25;;;;;;;5.47;2.80;;;;;;;;;;5070372;28;20177;-81
2022/11/15 03:07:14;;;;;;;4.37;2.90;;;;;;;;;;5064710;28;20361;-83
2022/11/15 03:09:59;;;;;;;4.77;2.80;;;;;;;;;;5067420;28;20254;-82
2022/11/15 03:12:58;;;;;;;4.53;2.90;;;;;;;;;;5068530;28;20217;-82
2022/11/15 03:16:03;;;;;;;3.47;2.97;;;;;;;;;;5069356;28;20197;-82
2022/11/15 03:18:50;;;;;;;4.23;3.10;;;;;;;;;;5064360;28;20181;-81
2022/11/15 03:21:36;;;;;;;3.73;3.13;;;;;;;;;;5080772;28;20184;-81
2022/11/15 03:24:21;;;;;;;4.27;3.27;;;;;;;;;;5065791;28;20189;-82
2022/11/15 03:27:07;;;;;;;5.77;2.93;;;;;;;;;;5068741;28;20182;-81
2022/11/15 03:29:57;;;;;;;4.83;4.00;;;;;;;;;;5070200;28;21257;-81
2022/11/15 03:32:45;;;;;;;4.43;3.30;;;;;;;;;;5064364;28;20217;-81
2022/11/15 03:35:32;;;;;;;3.70;3.30;;;;;;;;;;5081706;28;20264;-82
2022/11/15 03:38:23;;;;;;;4.03;3.17;;;;;;;;;;5068324;28;20189;-82
2022/11/15 03:41:15;;;;;;;6.37;3.80;;;;;;;;;;5065966;28;20193;-82
2022/11/15 03:44:27;;;;;;;4.23;3.30;;;;;;;;;;5085628;28;20191;-84
2022/11/15 03:47:21;;;;;;;3.90;3.20;;;;;;;;;;5043251;28;20197;-82
2022/11/15 03:50:12;;;;;;;3.83;3.30;;;;;;;;;;5064495;28;20204;-81
2022/11/15 03:52:58;;;;;;;5.37;3.73;;;;;;;;;;5066790;28;20291;-82
2022/11/15 03:55:43;;;;;;;4.80;3.80;;;;;;;;;;5069505;28;20264;-81
2022/11/15 03:58:28;;;;;;;6.77;3.80;;;;;;;;;;5081041;28;20186;-82
2022/11/15 04:01:12;;;;;;;6.67;3.80;;;;;;;;;;5067420;28;20238;-82
2022/11/15 04:03:57;;;;;;;4.57;3.63;;;;;;;;;;5052889;28;20819;-81
2022/11/15 04:06:42;;;;;;;3.97;3.27;;;;;;;;;;5067469;28;20219;-82
2022/11/15 04:09:27;;;;;;;5.63;3.63;;;;;;;;;;5067708;28;20873;-81
2022/11/15 04:12:11;;;;;;;6.03;4.17;;;;;;;;;;5065821;28;20235;-81
2022/11/15 04:15:07;;;;;;;4.60;3.70;;;;;;;;;;5065869;28;20174;-82
2022/11/15 04:17:56;;;;;;;6.70;3.83;;;;;;;;;;5071698;28;20184;-82
2022/11/15 04:26:49;;;;;;;5.50;4.00;;;;;;;;;;5068274;28;20751;-82
2022/11/15 04:29:34;;;;;;;5.43;4.13;;;;;;;;;;5066631;28;20258;-81
2022/11/15 04:32:19;;;;;;;6.37;4.60;;;;;;;;;;5063118;28;20295;-83
2022/11/15 04:35:04;;;;;;;4.73;4.03;;;;;;;;;;5063663;28;20174;-81
2022/11/15 04:37:49;;;;;;;8.20;4.80;;;;;;;;;;5063370;28;20216;-81
2022/11/15 04:40:34;;;;;;;7.37;4.87;;;;;;;;;;5081950;28;20185;-81
2022/11/15 04:43:19;;;;;;;5.30;3.90;;;;;;;;;;5076953;28;20547;-81
2022/11/15 04:46:03;;;;;;;5.63;4.00;;;;;;;;;;5066821;28;20250;-83
2022/11/15 04:48:48;;;;;;;7.40;4.50;;;;;;;;;;5070055;28;20177;-81
2022/11/15 04:51:34;;;;;;;5.93;3.87;;;;;;;;;;5067438;28;20277;-81
2022/11/15 04:54:19;;;;;;;7.40;4.40;;;;;;;;;;5063874;28;20180;-81
2022/11/15 04:57:04;;;;;;;5.50;4.20;;;;;;;;;;5064535;28;20205;-81
2022/11/15 04:59:49;;;;;;;5.80;4.23;;;;;;;;;;5068628;28;20258;-81
2022/11/15 05:05:37;;;;;;;5.40;3.90;;;;;;;;;;5065113;28;20184;-81
2022/11/15 05:08:22;;;;;;;5.28;4.50;;;;;;;;;;5066057;28;20462;-82
2022/11/15 05:11:07;;;;;;;4.80;3.73;;;;;;;;;;5054359;28;20243;-82
2022/11/15 05:13:52;;;;;;;5.47;4.43;;;;;;;;;;5070977;28;20453;-84
2022/11/15 05:16:38;;;;;;;6.00;4.30;;;;;;;;;;5071123;28;20209;-81
2022/11/15 05:19:23;;;;;;;6.10;4.50;;;;;;;;;;5080737;28;20192;-84
2022/11/15 05:22:08;;;;;;;5.30;4.10;;;;;;;;;;5076555;28;20250;-82
2022/11/15 05:24:53;;;;;;;4.90;4.07;;;;;;;;;;5075795;28;20234;-84
2022/11/15 05:27:37;;;;;;;5.30;4.37;;;;;;;;;;5054437;28;20181;-82
2022/11/15 05:30:22;;;;;;;8.03;4.23;;;;;;;;;;5066835;28;20201;-84
2022/11/15 05:33:07;;;;;;;5.27;4.10;;;;;;;;;;5069795;28;20197;-83
2022/11/15 05:35:57;;;;;;;6.00;4.40;;;;;;;;;;5067996;28;20277;-81
2022/11/15 05:38:42;;;;;;;5.77;4.20;;;;;;;;;;5079298;28;20181;-81
2022/11/15 05:41:31;;;;;;;6.13;4.37;;;;;;;;;;5068617;28;20201;-81
2022/11/15 05:44:18;;;;;;;6.32;4.88;;;;;;;;;;5065221;28;20449;-82
2022/11/15 05:47:04;;;;;;;6.37;4.63;;;;;;;;;;5064782;28;20188;-81
2022/11/15 05:49:50;;;;;;;7.13;5.43;;;;;;;;;;5068059;28;20209;-82
2022/11/15 05:52:36;;;;;;;5.87;4.67;;;;;;;;;;5067911;28;20205;-84
2022/11/15 05:55:21;;;;;;;6.23;5.10;;;;;;;;;;5068326;28;20601;-83
2022/11/15 05:58:06;;;;;;;6.90;4.67;;;;;;;;;;5083793;28;20196;-84
2022/11/15 06:00:50;;;;;;;6.43;4.43;;;;;;;;;;5067648;28;20302;-83
2022/11/15 06:03:36;;;;;;;4.70;3.90;;;;;;;;;;5065870;28;20208;-82
2022/11/15 06:06:20;;;;;;;6.57;4.53;;;;;;;;;;5064100;28;20211;-84
2022/11/15 06:09:05;;;;;;;5.20;4.30;;;;;;;;;;5060489;28;20720;-81
2022/11/15 06:11:50;;;;;;;9.93;5.07;;;;;;;;;;5079878;28;20244;-82
2022/11/15 06:14:35;;;;;;;6.63;5.30;;;;;;;;;;5064698;28;20217;-83
2022/11/15 06:17:20;;;;;;;6.60;5.60;;;;;;;;;;5069042;28;20430;-83
2022/11/15 06:20:05;;;;;;;7.63;5.10;;;;;;;;;;5066912;28;20433;-83
2022/11/15 06:22:49;;;;;;;7.25;5.72;;;;;;;;;;5065949;28;20519;-84
2022/11/15 06:25:34;;;;;;;6.70;4.87;;;;;;;;;;5066271;28;20197;-82
2022/11/15 06:28:19;;;;;;;5.13;4.50;;;;;;;;;;5055988;28;20233;-81
2022/11/15 06:31:05;;;;;;;6.47;4.70;;;;;;;;;;5064817;28;20200;-81
2022/11/15 06:33:50;;;;;;;7.30;4.80;;;;;;;;;;5064762;28;20231;-82
2022/11/15 06:36:36;;;;;;;5.33;4.50;;;;;;;;;;5085512;28;20181;-81
2022/11/15 06:39:21;;;;;;;5.67;4.23;;;;;;;;;;5086175;28;20197;-81
2022/11/15 06:42:05;;;;;;;6.93;4.50;;;;;;;;;;5071988;28;20193;-82
2022/11/15 06:44:50;;;;;;;7.13;5.30;;;;;;;;;;5068772;28;20174;-80
2022/11/15 06:47:35;;;;;;;6.47;5.20;;;;;;;;;;5071369;28;20218;-81
2022/11/15 06:50:20;;;;;;;8.43;5.10;;;;;;;;;;5066524;28;20213;-84
2022/11/15 06:53:04;;;;;;;6.60;4.80;;;;;;;;;;5069011;28;20528;-81
2022/11/15 06:55:49;;;;;;;6.33;4.77;;;;;;;;;;5065485;28;20200;-78
2022/11/15 06:58:35;;;;;;;7.77;5.00;;;;;;;;;;5068100;28;20181;-77
2022/11/15 07:01:21;;;;;;;7.43;4.93;;;;;;;;;;5066797;28;20193;-78
2022/11/15 07:04:06;;;;;;;6.60;4.50;;;;;;;;;;5065981;28;20246;-78
2022/11/15 07:06:51;;;;;;;9.83;5.10;;;;;;;;;;5066795;28;20247;-78
2022/11/15 07:09:35;;;;;;;6.87;5.60;;;;;;;;;;5065963;28;20205;-78
2022/11/15 07:12:20;;;;;;;7.33;5.83;;;;;;;;;;5063218;28;20278;-79
2022/11/15 07:15:06;;;;;;;7.93;5.70;;;;;;;;;;5067193;28;22044;-83
2022/11/15 07:17:51;;;;;;;8.63;5.77;;;;;;;;;;5069598;28;20848;-79
2022/11/15 07:20:41;;;;;;;6.80;5.50;;;;;;;;;;5067934;28;20181;-80
2022/11/15 07:23:26;;;;;;;6.50;5.40;;;;;;;;;;5065412;28;20208;-79
2022/11/15 07:26:11;;;;;;;6.63;5.13;;;;;;;;;;5069136;28;20219;-78
2022/11/15 07:28:56;;;;;;;8.67;6.30;;;;;;;;;;5083372;28;20204;-79
2022/11/15 07:31:41;;;;;;;8.67;6.40;;;;;;;;;;5069201;28;20204;-79
2022/11/15 07:34:26;;;;;;;8.83;6.43;;;;;;;;;;5070981;28;20535;-79
2022/11/15 07:37:11;;;;;;;8.40;6.43;;;;;;;;;;5069444;28;20587;-79
2022/11/15 07:39:56;;;;;;;8.00;6.00;;;;;;;;;;5068149;28;20235;-79
2022/11/15 07:42:53;;;;;;;8.63;5.83;;;;;;;;;;5069506;28;20204;-79
2022/11/15 07:45:45;;;;;;;7.33;6.00;;;;;;;;;;5066600;28;20192;-80
2022/11/15 07:48:30;;;;;;;7.07;5.93;;;;;;;;;;5079770;28;20193;-79
2022/11/15 07:51:16;;;;;;;9.43;6.17;;;;;;;;;;5067523;28;20208;-79
2022/11/15 07:54:01;;;;;;;8.67;6.47;;;;;;;;;;5068558;28;20254;-79
2022/11/15 07:56:46;;;;;;;12.00;7.90;;;;;;;;;;5079029;28;20185;-79
2022/11/15 07:59:31;;;;;;;11.00;8.13;;;;;;;;;;5077032;28;20215;-79
2022/11/15 08:02:17;;;;;;;12.03;9.20;;;;;;;;;;5063170;28;20288;-79
2022/11/15 08:05:02;;;;;;;12.33;8.83;;;;;;;;;;5067889;28;20188;-79
2022/11/15 08:07:46;;;;;;;11.53;7.63;;;;;;;;;;5065676;28;20184;-79
2022/11/15 08:10:31;;;;;;;11.20;7.90;;;;;;;;;;5066182;28;20243;-79
2022/11/15 08:13:17;;;;;;;8.67;5.83;;;;;;;;;;5071746;28;20213;-79
2022/11/15 08:16:05;;;;;;;10.17;6.20;;;;;;;;;;5067104;28;20185;-79
2022/11/15 08:18:49;;;;;;;9.80;7.03;;;;;;;;;;5067251;28;20789;-79
2022/11/15 08:21:35;;;;;;;7.77;5.67;;;;;;;;;;5065482;28;20268;-79
2022/11/15 08:24:20;;;;;;;5.90;4.80;;;;;;;;;;5068304;28;20178;-79
2022/11/15 08:27:04;;;;;;;5.40;4.40;;;;;;;;;;5073959;28;20200;-79
2022/11/15 08:29:50;;;;;;;5.20;4.30;;;;;;;;;;5068530;28;20193;-79
2022/11/15 08:32:35;;;;;;;6.40;4.27;;;;;;;;;;5070324;28;20218;-80
2022/11/15 08:35:21;;;;;;;7.57;4.60;;;;;;;;;;5070349;28;21004;-83
2022/11/15 08:38:05;;;;;;;6.10;4.03;;;;;;;;;;5072727;28;20318;-79
2022/11/15 08:40:52;;;;;;;6.27;4.53;;;;;;;;;;5058919;28;20389;-78
2022/11/15 08:43:37;;;;;;;4.87;4.33;;;;;;;;;;5067828;28;20707;-80
2022/11/15 08:46:22;;;;;;;4.83;4.33;;;;;;;;;;5060250;28;20674;-79
2022/11/15 08:49:07;;;;;;;8.80;5.00;;;;;;;;;;5067536;28;20177;-79
2022/11/15 08:51:51;;;;;;;6.57;4.60;;;;;;;;;;5077550;28;20254;-80
2022/11/15 08:54:37;;;;;;;5.07;4.33;;;;;;;;;;5081288;28;20211;-78
2022/11/15 08:57:22;;;;;;;6.40;4.60;;;;;;;;;;5065390;28;20192;-77
2022/11/15 09:00:07;;;;;;;6.57;4.57;;;;;;;;;;5070141;28;20184;-79
2022/11/15 09:02:52;;;;;;;5.93;4.17;;;;;;;;;;5069100;28;20224;-78
2022/11/15 09:05:37;;;;;;;8.20;4.80;;;;;;;;;;5063022;28;20234;-79
2022/11/15 09:08:22;;;;;;;7.40;4.33;;;;;;;;;;5064985;28;20188;-80
2022/11/15 09:11:08;;;;;;;6.73;4.70;;;;;;;;;;5049597;28;20228;-80
2022/11/15 09:13:53;;;;;;;6.60;4.40;;;;;;;;;;5079068;28;20181;-80
2022/11/15 09:16:43;;;;;;;5.73;4.13;;;;;;;;;;5073287;28;20315;-79
2022/11/15 09:19:27;;;;;;;7.10;4.17;;;;;;;;;;5063407;28;20178;-79
2022/11/15 09:22:12;;;;;;;4.87;3.97;;;;;;;;;;5057475;28;20319;-79
2022/11/15 09:24:57;;;;;;;6.27;4.40;;;;;;;;;;5063171;28;20242;-79
2022/11/15 09:27:42;;;;;;;6.23;4.10;;;;;;;;;;5067095;28;20193;-79
2022/11/15 09:30:27;;;;;;;5.67;3.53;;;;;;;;;;5058272;28;20250;-80
2022/11/15 09:33:12;;;;;;;4.07;3.30;;;;;;;;;;5060884;28;20204;-79
2022/11/15 09:36:07;;;;;;;6.13;3.77;;;;;;;;;;5067474;28;20218;-80
2022/11/15 09:38:52;;;;;;;4.70;3.60;;;;;;;;;;5072741;28;20185;-80
2022/11/15 09:41:46;;;;;;;5.43;3.67;;;;;;;;;;5066187;28;20679;-79
2022/11/15 09:44:39;;;;;;;3.93;2.93;;;;;;;;;;5046775;28;20224;-80
2022/11/15 09:47:24;;;;;;;4.27;3.30;;;;;;;;;;5077220;28;20260;-80
2022/11/15 09:50:14;;;;;;;4.07;3.10;;;;;;;;;;5063956;28;20209;-79
2022/11/15 09:52:43;;;;;;;5.10;3.10;;;;;;;;;;5067100;28;20200;-79
2022/11/15 09:55:10;;;;;;;3.83;2.70;;;;;;;;;;5065991;28;20177;-79
2022/11/15 09:57:42;;;;;;;4.80;2.87;;;;;;;;;;5073058;28;20697;-79
2022/11/15 10:00:29;;;;;;;3.37;2.80;;;;;;;;;;5067356;28;20165;-79
2022/11/15 10:03:04;;;;;;;3.43;2.80;;;;;;;;;;5066484;28;20201;-79
2022/11/15 10:05:40;;;;;;;6.27;2.90;;;;;;;;;;5067292;28;20302;-79
2022/11/15 10:08:12;;;;;;;3.00;2.70;;;;;;;;;;5066535;28;20738;-79
2022/11/15 10:10:44;;;;;;;3.33;2.80;;;;;;;;;;5071401;28;20621;-79
2022/11/15 10:13:24;;;;;;;4.00;3.07;;;;;;;;;;5085158;28;20273;-80
2022/11/15 10:15:51;;;;;;;3.50;2.90;;;;;;;;;;5051167;28;20234;-79
2022/11/15 10:18:17;;;;;;;4.93;3.23;;;;;;;;;;5072791;28;20173;-79
2022/11/15 10:20:56;;;;;;;4.07;3.40;;;;;;;;;;5068764;28;20279;-80
2022/11/15 10:23:23;;;;;;;4.60;3.20;;;;;;;;;;5070649;28;20217;-80
2022/11/15 10:25:52;;;;;;;4.20;3.10;;;;;;;;;;5068909;28;20182;-80
2022/11/15 10:28:28;;;;;;;4.63;3.27;;;;;;;;;;5072557;28;20219;-81
2022/11/15 10:30:55;;;;;;;4.20;3.27;;;;;;;;;;5071260;28;20204;-79
2022/11/15 10:33:37;;;;;;;3.80;3.37;;;;;;;;;;5085310;28;20282;-80
2022/11/15 10:36:09;;;;;;;3.93;3.10;;;;;;;;;;5069789;28;20468;-80
2022/11/15 10:38:50;;;;;;;3.83;3.20;;;;;;;;;;5071107;28;20173;-80
2022/11/15 10:41:32;;;;;;;4.90;3.07;;;;;;;;;;5072608;28;20589;-80
2022/11/15 10:44:07;;;;;;;3.90;3.27;;;;;;;;;;5058775;28;20542;-80
2022/11/15 10:46:34;;;;;;;3.20;2.90;;;;;;;;;;5085062;28;20719;-80
2022/11/15 10:49:13;;;;;;;5.30;3.27;;;;;;;;;;5071016;28;20727;-80
2022/11/15 10:51:48;;;;;;;8.00;3.40;;;;;;;;;;5070636;28;20199;-80
2022/11/15 10:54:19;;;;;;;3.83;3.30;;;;;;;;;;5063051;28;20188;-80
2022/11/15 10:56:49;;;;;;;4.53;2.80;;;;;;;;;;5084876;28;20189;-80
2022/11/15 10:59:25;;;;;;;4.80;3.13;;;;;;;;;;5082402;28;20177;-81
2022/11/15 11:01:51;;;;;;;3.23;2.93;;;;;;;;;;5073676;28;20729;-80
2022/11/15 11:04:19;;;;;;;4.40;2.90;;;;;;;;;;5073110;28;20173;-80
2022/11/15 11:06:52;;;;;;;4.10;2.90;;;;;;;;;;5070398;28;20181;-80
2022/11/15 11:09:31;;;;;;;4.13;3.00;;;;;;;;;;5070014;28;20212;-80
2022/11/15 11:11:58;;;;;;;4.30;2.87;;;;;;;;;;5083191;28;20230;-80
2022/11/15 11:14:30;;;;;;;3.17;2.87;;;;;;;;;;5068380;28;20182;-81
2022/11/15 11:17:09;;;;;;;3.70;2.80;;;;;;;;;;5072245;28;20613;-80
2022/11/15 11:19:48;;;;;;;3.87;2.70;;;;;;;;;;5069846;28;20180;-80
2022/11/15 11:22:26;;;;;;;3.17;2.87;;;;;;;;;;5070282;28;20278;-80
2022/11/15 11:25:01;;;;;;;5.50;2.47;;;;;;;;;;5069676;28;20188;-80
2022/11/15 11:27:27;;;;;;;3.97;3.00;;;;;;;;;;5071895;28;20176;-80
2022/11/15 11:30:01;;;;;;;4.83;2.80;;;;;;;;;;5069467;28;20225;-80
2022/11/15 11:32:30;;;;;;;4.97;2.90;;;;;;;;;;5051229;28;20205;-81
2022/11/15 11:35:09;;;;;;;7.03;3.70;;;;;;;;;;5087041;28;20193;-80
2022/11/15 11:37:57;;;;;;;4.83;2.90;;;;;;;;;;5067382;28;20181;-80
2022/11/15 11:40:32;;;;;;;4.17;2.77;;;;;;;;;;5068252;28;20197;-80
2022/11/15 11:43:05;;;;;;;2.87;2.57;;;;;;;;;;5068138;28;20679;-80
2022/11/15 11:45:34;;;;;;;3.67;2.50;;;;;;;;;;5067636;28;20281;-81
2022/11/15 11:48:13;;;;;;;5.73;2.60;;;;;;;;;;5083546;28;20271;-80
2022/11/15 11:50:40;;;;;;;6.13;2.53;;;;;;;;;;5056760;28;20200;-80
2022/11/15 11:53:11;;;;;;;4.30;2.53;;;;;;;;;;5059618;28;20739;-80
2022/11/15 11:55:40;;;;;;;5.67;2.50;;;;;;;;;;5067798;28;20211;-79
2022/11/15 11:58:26;;;;;;;3.77;2.17;;;;;;;;;;5067413;28;20270;-79
2022/11/15 12:00:56;;;;;;;4.30;2.10;;;;;;;;;;5067230;28;20678;-79
2022/11/15 12:03:25;;;;;;;4.50;2.27;;;;;;;;;;5061677;28;20345;-79
2022/11/15 12:05:57;;;;;;;4.00;2.10;;;;;;;;;;5069283;28;20181;-79
2022/11/15 12:08:32;;;;;;;6.63;2.23;;;;;;;;;;5068437;28;20237;-79
2022/11/15 12:11:01;;;;;;;2.93;2.20;;;;;;;;;;5083006;28;20227;-79
2022/11/15 12:13:29;;;;;;;2.67;2.10;;;;;;;;;;5063844;28;20209;-79
2022/11/15 12:16:05;;;;;;;4.30;2.10;;;;;;;;;;5066284;28;20192;-79
2022/11/15 12:18:31;;;;;;;2.80;2.10;;;;;;;;;;5062913;28;20360;-79
2022/11/15 12:21:04;;;;;;;2.90;2.00;;;;;;;;;;5069809;28;20181;-80
2022/11/15 12:23:39;;;;;;;3.40;2.20;;;;;;;;;;5080894;28;20204;-79
2022/11/15 12:26:09;;;;;;;2.40;2.20;;;;;;;;;;5050294;28;20245;-80
2022/11/15 12:28:57;;;;;;;2.33;2.00;;;;;;;;;;5065161;28;20189;-79
2022/11/15 12:31:23;;;;;;;2.47;2.13;;;;;;;;;;5066020;28;20296;-79
2022/11/15 12:33:50;;;;;;;4.40;2.40;;;;;;;;;;5068897;28;20205;-79
2022/11/15 12:36:22;;;;;;;2.93;2.10;;;;;;;;;;5065781;28;20181;-79
2022/11/15 12:38:54;;;;;;;2.80;2.30;;;;;;;;;;5042394;28;20193;-79
2022/11/15 12:41:21;;;;;;;3.33;2.10;;;;;;;;;;5059885;28;20744;-79
2022/11/15 12:43:48;;;;;;;2.43;2.20;;;;;;;;;;5065622;28;20208;-79
2022/11/15 12:46:30;;;;;;;4.43;2.53;;;;;;;;;;5068165;28;20745;-79
2022/11/15 12:48:56;;;;;;;2.97;2.30;;;;;;;;;;5080323;28;20239;-78
2022/11/15 12:51:46;;;;;;;4.90;3.00;;;;;;;;;;5065415;28;20223;-79
2022/11/15 12:54:22;;;;;;;8.67;6.27;;;;;;;;;;5041435;28;20247;-79
2022/11/15 12:57:03;;;;;;;8.30;5.93;;;;;;;;;;5085323;28;20209;-81
2022/11/15 12:59:48;;;;;;;8.30;5.90;;;;;;;;;;5067904;28;20775;-79
2022/11/15 13:02:33;;;;;;;9.43;4.93;;;;;;;;;;5068411;28;20258;-82
2022/11/15 13:05:15;;;;;;;5.27;3.83;;;;;;;;;;5074651;28;20936;-82
2022/11/15 13:07:41;;;;;;;5.20;2.90;;;;;;;;;;5066688;28;20892;-80
2022/11/15 13:10:10;;;;;;;3.53;2.50;;;;;;;;;;5068151;28;20198;-81
2022/11/15 13:12:40;;;;;;;3.97;2.57;;;;;;;;;;5065142;28;20217;-80
2022/11/15 13:15:13;;;;;;;3.23;2.70;;;;;;;;;;5066714;28;20636;-80
2022/11/15 13:17:45;;;;;;;3.73;2.73;;;;;;;;;;5053386;28;20192;-80
2022/11/15 13:20:14;;;;;;;3.47;2.70;;;;;;;;;;5066309;28;20189;-80
2022/11/15 13:22:54;;;;;;;7.57;4.30;;;;;;;;;;5065508;28;20205;-80
2022/11/15 13:25:29;;;;;;;4.60;3.27;;;;;;;;;;5067949;28;20215;-82
2022/11/15 13:27:57;;;;;;;4.97;2.97;;;;;;;;;;5066218;28;20834;-78
2022/11/15 13:30:30;;;;;;;2.70;2.40;;;;;;;;;;5061604;28;20232;-78
2022/11/15 13:32:59;;;;;;;3.50;2.60;;;;;;;;;;5068579;28;20204;-79
2022/11/15 13:35:27;;;;;;;5.43;3.00;;;;;;;;;;5060126;28;20712;-79
2022/11/15 13:37:54;;;;;;;4.37;2.83;;;;;;;;;;5082070;28;20177;-79
2022/11/15 13:40:23;;;;;;;2.90;2.50;;;;;;;;;;5070157;28;20193;-79
2022/11/15 13:42:49;;;;;;;4.33;2.57;;;;;;;;;;5069628;28;20223;-79
2022/11/15 13:45:17;;;;;;;8.67;5.07;;;;;;;;;;5070462;28;20177;-79
2022/11/15 13:47:43;;;;;;;14.77;7.00;;;;;;;;;;5068840;28;20290;-79
2022/11/15 13:50:13;;;;;;;11.80;6.60;;;;;;;;;;5069608;28;20251;-79
2022/11/15 13:52:42;;;;;;;10.33;5.40;;;;;;;;;;5087118;28;20223;-79
2022/11/15 13:55:13;;;;;;;8.23;5.13;;;;;;;;;;5066476;28;20189;-79
2022/11/15 13:57:50;;;;;;;6.63;4.57;;;;;;;;;;5070396;28;20197;-79
2022/11/15 14:00:22;;;;;;;4.40;3.83;;;;;;;;;;5066455;28;20238;-79
2022/11/15 14:02:49;;;;;;;5.33;3.13;;;;;;;;;;5068552;28;20219;-79
2022/11/15 14:05:17;;;;;;;3.93;3.13;;;;;;;;;;5065893;28;20188;-79
2022/11/15 14:07:53;;;;;;;5.10;3.00;;;;;;;;;;5061664;28;20201;-78
2022/11/15 14:10:31;;;;;;;3.27;2.63;;;;;;;;;;5075628;28;20231;-78
2022/11/15 14:12:58;;;;;;;3.00;2.50;;;;;;;;;;5066899;28;20293;-78
2022/11/15 14:15:24;;;;;;;3.83;2.97;;;;;;;;;;5066906;28;20193;-78
2022/11/15 14:17:50;;;;;;;5.43;3.23;;;;;;;;;;5065927;28;20173;-78
2022/11/15 14:20:30;;;;;;;3.90;3.20;;;;;;;;;;5067643;28;20181;-78
2022/11/15 14:22:59;;;;;;;3.60;2.90;;;;;;;;;;5067062;28;20626;-78
2022/11/15 14:25:27;;;;;;;3.90;2.87;;;;;;;;;;5073234;28;20261;-78
2022/11/15 14:28:29;;;;;;;4.63;3.20;;;;;;;;;;5053529;28;20187;-78
2022/11/15 14:30:56;;;;;;;6.87;4.90;;;;;;;;;;5041801;28;20213;-78
2022/11/15 14:33:31;;;;;;;5.23;3.93;;;;;;;;;;5055994;28;20232;-78
2022/11/15 14:35:58;;;;;;;4.97;4.10;;;;;;;;;;5069890;28;20702;-78
2022/11/15 14:38:25;;;;;;;6.60;4.77;;;;;;;;;;5068220;28;20250;-78
2022/11/15 14:40:52;;;;;;;5.33;4.00;;;;;;;;;;5050004;28;20807;-78
2022/11/15 14:43:18;;;;;;;4.80;4.00;;;;;;;;;;5060336;28;20204;-78
2022/11/15 14:45:44;;;;;;;6.83;3.53;;;;;;;;;;5048743;28;20631;-78
2022/11/15 14:48:10;;;;;;;5.47;3.60;;;;;;;;;;5066311;28;20185;-78
2022/11/15 14:50:36;;;;;;;7.87;3.63;;;;;;;;;;5065703;28;20240;-78
2022/11/15 14:53:03;;;;;;;3.67;3.30;;;;;;;;;;5067037;28;20201;-78
2022/11/15 14:55:35;;;;;;;5.03;3.03;;;;;;;;;;5070132;28;20645;-78
2022/11/15 14:58:07;;;;;;;5.43;3.30;;;;;;;;;;5062226;28;20355;-78
2022/11/15 15:00:34;;;;;;;7.17;4.77;;;;;;;;;;5071072;28;20181;-78
2022/11/15 15:03:00;;;;;;;6.97;4.57;;;;;;;;;;5073696;28;20201;-78
2022/11/15 15:05:34;;;;;;;7.90;5.50;;;;;;;;;;5068158;28;20185;-78
2022/11/15 15:08:00;;;;;;;5.93;4.60;;;;;;;;;;5068419;28;20545;-78
2022/11/15 15:10:43;;;;;;;14.03;8.67;;;;;;;;;;5070595;28;20274;-78
2022/11/15 15:13:20;;;;;;;9.30;6.33;;;;;;;;;;5069640;28;20213;-78
2022/11/15 15:15:46;;;;;;;8.13;5.10;;;;;;;;;;5068320;28;20271;-79
2022/11/15 15:18:13;;;;;;;5.57;4.43;;;;;;;;;;5049892;28;20339;-81
2022/11/15 15:20:40;;;;;;;4.13;2.77;;;;;;;;;;5052466;28;20197;-76
2022/11/15 15:23:13;;;;;;;4.77;2.50;;;;;;;;;;5069759;28;20216;-75
2022/11/15 15:25:41;;;;;;;4.27;2.73;;;;;;;;;;5074298;28;20544;-78
2022/11/15 15:28:08;;;;;;;10.27;5.30;;;;;;;;;;5070573;28;20197;-80
2022/11/15 15:30:34;;;;;;;6.55;4.30;;;;;;;;;;5068382;28;20433;-80
2022/11/15 15:33:00;;;;;;;5.10;3.30;;;;;;;;;;5072109;28;20212;-79
2022/11/15 15:35:30;;;;;;;5.40;3.93;;;;;;;;;;5075098;28;20260;-82
2022/11/15 15:37:56;;;;;;;4.00;2.63;;;;;;;;;;5074765;28;20201;-81
2022/11/15 15:40:23;;;;;;;2.80;2.10;;;;;;;;;;5074620;28;20189;-78
2022/11/15 15:42:49;;;;;;;2.63;2.20;;;;;;;;;;5070584;28;20625;-79
2022/11/15 15:45:16;;;;;;;4.07;2.80;;;;;;;;;;5085886;28;20253;-80
2022/11/15 15:47:42;;;;;;;5.77;3.63;;;;;;;;;;5072364;28;20186;-80
2022/11/15 15:50:21;;;;;;;5.93;3.40;;;;;;;;;;5088341;28;20279;-78
2022/11/15 15:52:48;;;;;;;6.97;3.70;;;;;;;;;;5070715;28;20453;-79
2022/11/15 15:55:14;;;;;;;5.10;2.70;;;;;;;;;;5073086;28;20276;-77
2022/11/15 15:57:40;;;;;;;2.33;2.07;;;;;;;;;;5071263;28;20181;-81
2022/11/15 16:00:07;;;;;;;4.32;2.20;;;;;;;;;;5053639;28;20517;-80
2022/11/15 16:02:38;;;;;;;3.47;2.20;;;;;;;;;;5074801;28;20391;-82
2022/11/15 16:05:05;;;;;;;8.17;3.87;;;;;;;;;;5054398;28;20192;-79
2022/11/15 16:07:32;;;;;;;5.97;3.53;;;;;;;;;;5094956;28;20941;-80
2022/11/15 16:10:01;;;;;;;5.10;3.00;;;;;;;;;;5075113;28;20209;-80
2022/11/15 16:12:28;;;;;;;4.57;3.10;;;;;;;;;;5076619;28;20221;-81